Time,TemperatureF,DewpointF,PressureIn,WindDirection,WindDirectionDegrees,WindSpeedMPH,WindSpeedGustMPH,Humidity,HourlyPrecipIn,Conditions,Clouds,dailyrainin,SoftwareType,DateUTC
2013-03-03 00:05:00,23.0,22.8,29.59,West,270,0.0,-999.0,99,-99.99,,,0.00,Acu-Link.com,2013-03-03 05:05:00,
2013-03-03 00:20:00,22.8,22.6,29.58,SW,225,0.0,-999.0,99,-99.99,,,0.00,Acu-Link.com,2013-03-03 05:20:00,
2013-03-03 00:35:00,22.6,22.4,29.59,SSW,202,0.0,-999.0,99,-99.99,,,0.00,Acu-Link.com,2013-03-03 05:35:00,
2013-03-03 00:50:00,22.5,22.3,29.58,West,270,0.0,-999.0,99,-99.99,,,0.00,Acu-Link.com,2013-03-03 05:50:00,
2013-03-03 01:05:00,22.3,22.1,29.58,WSW,247,0.0,-999.0,99,-99.99,,,0.00,Acu-Link.com,2013-03-03 06:05:00,
2013-03-03 01:21:00,22.1,21.9,29.58,WSW,247,0.0,-999.0,99,-99.99,,,0.00,Acu-Link.com,2013-03-03 06:21:00,
2013-03-03 01:36:00,22.1,21.9,29.59,West,270,0.0,-999.0,99,-99.99,,,0.00,Acu-Link.com,2013-03-03 06:36:00,
2013-03-03 01:51:00,21.9,21.7,29.58,SW,225,0.0,-999.0,99,-99.99,,,0.00,Acu-Link.com,2013-03-03 06:51:00,
2013-03-03 02:06:00,21.9,21.7,29.58,WNW,292,0.0,-999.0,99,-99.99,,,0.00,Acu-Link.com,2013-03-03 07:06:00,
2013-03-03 02:21:00,22.1,21.9,29.58,NE,45,0.0,-999.0,99,-99.99,,,0.00,Acu-Link.com,2013-03-03 07:21:00,
2013-03-03 02:37:00,22.1,21.9,29.57,NW,315,0.0,-999.0,99,-99.99,,,0.00,Acu-Link.com,2013-03-03 07:37:00,
2013-03-03 02:52:00,22.1,21.9,29.57,WNW,292,0.0,-999.0,99,-99.99,,,0.00,Acu-Link.com,2013-03-03 07:52:00,
2013-03-03 03:07:00,21.6,21.4,29.57,West,270,0.0,-999.0,99,-99.99,,,0.00,Acu-Link.com,2013-03-03 08:07:00,
2013-03-03 03:22:00,21.6,21.4,29.56,WSW,247,0.0,-999.0,99,-99.99,,,0.00,Acu-Link.com,2013-03-03 08:22:00,
2013-03-03 03:37:00,21.4,21.2,29.56,WNW,292,0.0,-999.0,99,-99.99,,,0.00,Acu-Link.com,2013-03-03 08:37:00,
2013-03-03 03:53:00,21.0,20.8,29.57,WSW,247,0.0,-999.0,99,-99.99,,,0.00,Acu-Link.com,2013-03-03 08:53:00,
2013-03-03 04:19:00,21.0,20.8,29.57,SSW,202,0.0,-999.0,99,-99.99,,,0.00,Acu-Link.com,2013-03-03 09:19:00,
2013-03-03 04:34:00,20.7,20.5,29.56,WSW,247,0.0,-999.0,99,-99.99,,,0.00,Acu-Link.com,2013-03-03 09:34:00,
2013-03-03 04:49:00,20.7,20.5,29.57,WNW,292,0.0,-999.0,99,-99.99,,,0.00,Acu-Link.com,2013-03-03 09:49:00,
2013-03-03 05:04:00,20.7,20.5,29.57,WSW,247,0.0,-999.0,99,-99.99,,,0.00,Acu-Link.com,2013-03-03 10:04:00,
2013-03-03 05:19:00,20.7,20.5,29.56,SW,225,0.0,-999.0,99,-99.99,,,0.00,Acu-Link.com,2013-03-03 10:19:00,
2013-03-03 05:34:00,20.7,20.5,29.57,WSW,247,0.0,-999.0,99,-99.99,,,0.00,Acu-Link.com,2013-03-03 10:34:00,
2013-03-03 05:50:00,20.5,20.3,29.56,SW,225,0.0,-999.0,99,-99.99,,,0.00,Acu-Link.com,2013-03-03 10:50:00,
2013-03-03 06:05:00,20.5,20.3,29.56,West,270,0.0,-999.0,99,-99.99,,,0.00,Acu-Link.com,2013-03-03 11:05:00,
2013-03-03 06:20:00,20.5,20.3,29.56,SW,225,0.0,-999.0,99,-99.99,,,0.00,Acu-Link.com,2013-03-03 11:20:00,
2013-03-03 06:35:00,20.7,20.5,29.55,SSW,202,0.0,-999.0,99,-99.99,,,0.00,Acu-Link.com,2013-03-03 11:35:00,
2013-03-03 06:50:00,20.8,20.6,29.55,WSW,247,0.0,-999.0,99,-99.99,,,0.00,Acu-Link.com,2013-03-03 11:50:00,
2013-03-03 07:06:00,21.4,21.2,29.56,SSW,202,0.0,-999.0,99,-99.99,,,0.00,Acu-Link.com,2013-03-03 12:06:00,
2013-03-03 07:21:00,21.6,21.1,29.56,SW,225,0.0,-999.0,98,-99.99,,,0.00,Acu-Link.com,2013-03-03 12:21:00,
2013-03-03 07:36:00,21.9,21.4,29.55,West,270,0.0,-999.0,98,-99.99,,,0.00,Acu-Link.com,2013-03-03 12:36:00,
2013-03-03 07:51:00,22.5,21.3,29.56,WSW,247,0.0,-999.0,95,-99.99,,,0.00,Acu-Link.com,2013-03-03 12:51:00,
2013-03-03 08:06:00,23.0,21.8,29.56,WSW,247,0.0,-999.0,95,-99.99,,,0.00,Acu-Link.com,2013-03-03 13:06:00,
2013-03-03 08:22:00,23.5,22.0,29.55,North,0,0.0,-999.0,94,-99.99,,,0.00,Acu-Link.com,2013-03-03 13:22:00,
2013-03-03 08:37:00,23.4,21.7,29.55,WSW,247,0.0,-999.0,93,-99.99,,,0.00,Acu-Link.com,2013-03-03 13:37:00,
2013-03-03 08:52:00,23.7,22.0,29.55,NNW,337,0.0,-999.0,93,-99.99,,,0.00,Acu-Link.com,2013-03-03 13:52:00,
2013-03-03 09:07:00,24.1,22.1,29.55,West,270,0.0,-999.0,92,-99.99,,,0.00,Acu-Link.com,2013-03-03 14:07:00,
2013-03-03 09:22:00,25.2,22.7,29.55,SSW,202,0.0,-999.0,90,-99.99,,,0.00,Acu-Link.com,2013-03-03 14:22:00,
2013-03-03 09:38:00,25.3,22.5,29.55,SW,225,0.0,-999.0,89,-99.99,,,0.00,Acu-Link.com,2013-03-03 14:38:00,
2013-03-03 09:53:00,25.9,22.8,29.53,SW,225,0.0,-999.0,88,-99.99,,,0.00,Acu-Link.com,2013-03-03 14:53:00,
2013-03-03 10:08:00,26.4,23.6,29.53,WSW,247,0.0,-999.0,89,-99.99,,,0.00,Acu-Link.com,2013-03-03 15:08:00,
2013-03-03 10:23:00,27.0,23.7,29.53,SW,225,0.0,-999.0,87,-99.99,,,0.00,Acu-Link.com,2013-03-03 15:23:00,
2013-03-03 10:38:00,27.7,24.1,29.53,West,270,0.0,-999.0,86,-99.99,,,0.00,Acu-Link.com,2013-03-03 15:38:00,
2013-03-03 10:54:00,29.3,25.1,29.52,SW,225,0.0,-999.0,84,-99.99,,,0.00,Acu-Link.com,2013-03-03 15:54:00,
2013-03-03 11:09:00,27.9,24.5,29.52,West,270,0.0,-999.0,87,-99.99,,,0.00,Acu-Link.com,2013-03-03 16:09:00,
2013-03-03 11:24:00,28.4,24.8,29.52,WSW,247,0.0,-999.0,86,-99.99,,,0.00,Acu-Link.com,2013-03-03 16:24:00,
2013-03-03 11:39:00,28.2,24.6,29.52,SSW,202,0.0,-999.0,86,-99.99,,,0.00,Acu-Link.com,2013-03-03 16:39:00,
2013-03-03 11:55:00,28.2,24.8,29.52,North,0,0.0,-999.0,87,-99.99,,,0.00,Acu-Link.com,2013-03-03 16:55:00,
2013-03-03 12:10:00,28.2,25.4,29.51,WSW,247,0.0,-999.0,89,-99.99,,,0.00,Acu-Link.com,2013-03-03 17:10:00,
2013-03-03 12:25:00,27.7,25.2,29.51,SW,225,0.0,-999.0,90,-99.99,,,0.00,Acu-Link.com,2013-03-03 17:25:00,
2013-03-03 12:40:00,28.0,25.5,29.52,West,270,0.0,-999.0,90,-99.99,,,0.00,Acu-Link.com,2013-03-03 17:40:00,
2013-03-03 12:55:00,28.0,25.5,29.50,WNW,292,0.0,-999.0,90,-99.99,,,0.00,Acu-Link.com,2013-03-03 17:55:00,
2013-03-03 13:11:00,28.0,25.2,29.50,West,270,0.0,-999.0,89,-99.99,,,0.00,Acu-Link.com,2013-03-03 18:11:00,
2013-03-03 13:26:00,27.9,25.4,29.50,West,270,0.0,-999.0,90,-99.99,,,0.00,Acu-Link.com,2013-03-03 18:26:00,
2013-03-03 13:41:00,27.9,25.4,29.50,WNW,292,0.0,-999.0,90,-99.99,,,0.00,Acu-Link.com,2013-03-03 18:41:00,
2013-03-03 13:56:00,28.0,25.5,29.50,West,270,0.0,-999.0,90,-99.99,,,0.00,Acu-Link.com,2013-03-03 18:56:00,
2013-03-03 14:11:00,27.7,25.2,29.50,WSW,247,0.0,-999.0,90,-99.99,,,0.00,Acu-Link.com,2013-03-03 19:11:00,
2013-03-03 14:27:00,27.1,24.8,29.50,WSW,247,0.0,-999.0,91,-99.99,,,0.00,Acu-Link.com,2013-03-03 19:27:00,
2013-03-03 14:42:00,26.2,24.2,29.50,SW,225,0.0,-999.0,92,-99.99,,,0.00,Acu-Link.com,2013-03-03 19:42:00,
2013-03-03 14:57:00,26.2,24.5,29.51,West,270,0.0,-999.0,93,-99.99,,,0.00,Acu-Link.com,2013-03-03 19:57:00,
2013-03-03 15:12:00,26.4,24.7,29.50,East,90,0.0,-999.0,93,-99.99,,,0.00,Acu-Link.com,2013-03-03 20:12:00,
2013-03-03 15:27:00,26.8,25.3,29.49,SW,225,0.0,-999.0,94,-99.99,,,0.00,Acu-Link.com,2013-03-03 20:27:00,
2013-03-03 15:43:00,26.1,24.9,29.50,SW,225,0.0,-999.0,95,-99.99,,,0.00,Acu-Link.com,2013-03-03 20:43:00,
2013-03-03 15:58:00,25.3,24.3,29.51,NNW,337,0.0,-999.0,96,-99.99,,,0.00,Acu-Link.com,2013-03-03 20:58:00,
2013-03-03 16:13:00,25.2,24.5,29.51,West,270,0.0,-999.0,97,-99.99,,,0.00,Acu-Link.com,2013-03-03 21:13:00,
2013-03-03 16:28:00,24.6,23.9,29.51,WSW,247,0.0,-999.0,97,-99.99,,,0.00,Acu-Link.com,2013-03-03 21:28:00,
2013-03-03 16:44:00,24.4,23.7,29.52,NNW,337,0.0,-999.0,97,-99.99,,,0.00,Acu-Link.com,2013-03-03 21:44:00,
2013-03-03 16:59:00,24.1,23.6,29.52,NNE,22,0.0,-999.0,98,-99.99,,,0.00,Acu-Link.com,2013-03-03 21:59:00,
2013-03-03 17:14:00,23.9,23.4,29.52,WSW,247,0.0,-999.0,98,-99.99,,,0.00,Acu-Link.com,2013-03-03 22:14:00,
2013-03-03 17:29:00,23.4,23.2,29.52,West,270,0.0,-999.0,99,-99.99,,,0.00,Acu-Link.com,2013-03-03 22:29:00,
2013-03-03 17:44:00,23.0,22.8,29.52,WNW,292,0.0,-999.0,99,-99.99,,,0.00,Acu-Link.com,2013-03-03 22:44:00,
2013-03-03 18:00:00,22.8,22.6,29.52,North,0,0.0,-999.0,99,-99.99,,,0.00,Acu-Link.com,2013-03-03 23:00:00,
2013-03-03 18:15:00,22.6,22.4,29.52,NNW,337,0.0,-999.0,99,-99.99,,,0.00,Acu-Link.com,2013-03-03 23:15:00,
2013-03-03 18:30:00,22.6,22.4,29.53,West,270,0.0,-999.0,99,-99.99,,,0.00,Acu-Link.com,2013-03-03 23:30:00,
2013-03-03 18:45:00,22.3,22.1,29.53,West,270,0.0,-999.0,99,-99.99,,,0.00,Acu-Link.com,2013-03-03 23:45:00,
2013-03-03 19:00:00,21.9,21.7,29.52,SSW,202,0.0,-999.0,99,-99.99,,,0.00,Acu-Link.com,2013-03-04 00:00:00,
2013-03-03 19:16:00,21.7,21.5,29.53,SW,225,0.0,-999.0,99,-99.99,,,0.00,Acu-Link.com,2013-03-04 00:16:00,
2013-03-03 19:31:00,21.6,21.4,29.53,West,270,0.0,-999.0,99,-99.99,,,0.00,Acu-Link.com,2013-03-04 00:31:00,
2013-03-03 19:46:00,21.0,20.8,29.52,West,270,0.0,-999.0,99,-99.99,,,0.00,Acu-Link.com,2013-03-04 00:46:00,
2013-03-03 20:01:00,20.8,20.6,29.53,WSW,247,0.0,-999.0,99,-99.99,,,0.00,Acu-Link.com,2013-03-04 01:01:00,
2013-03-03 20:16:00,20.7,20.5,29.53,WNW,292,0.0,-999.0,99,-99.99,,,0.00,Acu-Link.com,2013-03-04 01:16:00,
2013-03-03 20:32:00,20.5,20.3,29.53,WSW,247,0.0,-999.0,99,-99.99,,,0.00,Acu-Link.com,2013-03-04 01:32:00,
2013-03-03 20:47:00,20.5,20.3,29.54,WSW,247,0.0,-999.0,99,-99.99,,,0.00,Acu-Link.com,2013-03-04 01:47:00,
2013-03-03 21:02:00,20.5,20.3,29.53,West,270,0.0,-999.0,99,-99.99,,,0.00,Acu-Link.com,2013-03-04 02:02:00,
2013-03-03 21:17:00,20.5,20.3,29.52,West,270,0.0,-999.0,99,-99.99,,,0.00,Acu-Link.com,2013-03-04 02:17:00,
2013-03-03 21:32:00,20.1,19.9,29.52,NW,315,0.0,-999.0,99,-99.99,,,0.00,Acu-Link.com,2013-03-04 02:32:00,
2013-03-03 21:48:00,19.8,19.6,29.52,SSW,202,0.0,-999.0,99,-99.99,,,0.00,Acu-Link.com,2013-03-04 02:48:00,
2013-03-03 22:03:00,19.6,19.4,29.52,WSW,247,0.0,-999.0,99,-99.99,,,0.00,Acu-Link.com,2013-03-04 03:03:00,
2013-03-03 22:18:00,19.4,19.2,29.52,SW,225,0.0,-999.0,99,-99.99,,,0.00,Acu-Link.com,2013-03-04 03:18:00,
2013-03-03 22:34:00,19.4,19.2,29.52,West,270,0.0,-999.0,99,-99.99,,,0.00,Acu-Link.com,2013-03-04 03:34:00,
2013-03-03 22:49:00,19.4,19.2,29.51,West,270,0.0,-999.0,99,-99.99,,,0.00,Acu-Link.com,2013-03-04 03:49:00,
2013-03-03 23:04:00,19.2,19.0,29.51,WSW,247,0.0,-999.0,99,-99.99,,,0.00,Acu-Link.com,2013-03-04 04:04:00,
2013-03-03 23:19:00,19.2,19.0,29.51,South,180,0.0,-999.0,99,-99.99,,,0.00,Acu-Link.com,2013-03-04 04:19:00,
2013-03-03 23:34:00,19.2,19.0,29.51,SW,225,0.0,-999.0,99,-99.99,,,0.00,Acu-Link.com,2013-03-04 04:34:00,
2013-03-03 23:50:00,19.2,19.0,29.50,NNW,337,0.0,-999.0,99,-99.99,,,0.00,Acu-Link.com,2013-03-04 04:50:00,